首页
METAR-TAF:

METAR-TAF

机场 :

顿河畔罗斯托夫, 俄罗斯

纬度: 47-29-38N, 经度: 039-55-29E, 海拔: 65米

当前天气观测

该预报发布于17分钟前的14:00 UTC
风速8节,风向
温度 2°C
湿度 64%
气压 1030 hPa
能见度10公里或以上
散云层高于2800英尺

METAR: URRP 191400Z 10004MPS 9999 SCT028 02/M04 Q1030 R05/CLRD70 NOSIG RMK QFE768/1024

时间: 18:17 (14:17 UTC)

预报

该预报发布于3小时和22分钟前的10:55 UTC
预报有效从19日的 12点(UTC)到 20日的 12点(UTC)
风速6节,风向,有时为19节阵风
能见度10公里或以上
多云层高于1100英尺
短暂存在
从 19日的 12点(UTC)到 19日的 16点(UTC)
风速6节,风向东转东南,有时为19节阵风
成为
从 19日的 17点(UTC)到 19日的 19点(UTC)
能見度: 3100
轻雾

TAF: URRP 191055Z 1912/2012 09003G10MPS 9999 BKN011 TEMPO 1912/1916 12003G10MPS BECMG 1917/1919 3100 BR

超过4000个机场的气象观测和天气预报(METAR&TAF报告)。

可查询的气象台以黄色和红色小点在地图上表示。

将鼠标移到小点上方,可查看气象台名称。

然后点击查看天气观测和预报。

如需切换地图:点击带黑十字的绿色按钮放大地图;点击带横线的绿色按钮缩小地图;或者点击绿色箭头查看邻近地区的地图。


METAR-TAF: